Terminal Aerodrome Forecast
Issued by NWS

Home | Current Version | Previous Version | Text Only | Print | Product List | Glossary On
Versions: 1 2 3 4 5 6 7 8 9 10 11 12 13 14 15 16 17 18 19 20 21 22 23 24 25 26 27 28 29 30 31 32 33 34 35 36 37
000
FTUS46 KLOX 270913 AAA
TAFLAX
TAF AMD
KLAX 270913Z 2709/2812 31006KT P6SM SCT010
     FM271100 VRB03KT 6SM BR BKN006
     FM271630 25006KT P6SM SCT010
     FM272100 26013KT P6SM SCT120
     FM280400 26008KT P6SM SCT008
     FM280900 VRB03KT 5SM BR BKN006=

USA.gov is the U.S. government's official web portal to all federal, state and local government web resources and services.